Time;durP1;ratioP1;P1;durP2;ratioP2;P2;SDS_P1;SDS_P2;PMS_P1;PMS_P2;Temp;Humidity;BMP_temperature;BMP_pressure;BME280_temperature;BME280_humidity;BME280_pressure;Samples;Min_cycle;Max_cycle;Signal;HPM_P1;HPM_P2
2023/07/21 00:01:36;;;;;;;30.73;29.47;;;16.50;99.90;;;;;;4434863;32;20148;-56
2023/07/21 00:04:08;;;;;;;31.93;30.43;;;16.40;99.90;;;;;;4436290;32;20162;-56
2023/07/21 00:06:35;;;;;;;32.93;31.53;;;16.40;99.90;;;;;;4434616;32;20151;-57
2023/07/21 00:09:06;;;;;;;30.63;29.37;;;16.40;99.90;;;;;;4435857;32;20148;-58
2023/07/21 00:11:33;;;;;;;29.53;28.33;;;16.40;99.90;;;;;;4426589;32;20646;-58
2023/07/21 00:14:02;;;;;;;30.33;28.93;;;16.40;99.90;;;;;;4435062;32;20560;-54
2023/07/21 00:16:29;;;;;;;29.40;28.20;;;16.40;99.90;;;;;;4438042;32;20151;-58
2023/07/21 00:18:56;;;;;;;30.10;28.80;;;16.40;99.90;;;;;;4435599;32;20158;-54
2023/07/21 00:21:34;;;;;;;30.40;29.10;;;16.40;99.90;;;;;;4435508;32;20140;-58
2023/07/21 00:24:04;;;;;;;30.00;28.77;;;16.30;99.90;;;;;;4435955;32;20139;-54
2023/07/21 00:26:35;;;;;;;28.20;27.00;;;16.30;99.90;;;;;;4433015;32;20166;-57
2023/07/21 00:29:06;;;;;;;27.73;26.53;;;16.30;99.90;;;;;;4436126;32;20183;-57
2023/07/21 00:31:35;;;;;;;28.53;27.30;;;16.30;99.90;;;;;;4433797;32;20202;-57
2023/07/21 00:34:08;;;;;;;28.50;27.30;;;16.30;99.90;;;;;;4434082;32;20186;-57
2023/07/21 00:36:36;;;;;;;28.67;27.47;;;16.20;99.90;;;;;;4434949;32;20482;-57
2023/07/21 00:39:04;;;;;;;29.00;27.53;;;16.30;99.90;;;;;;4423034;32;20167;-59
2023/07/21 00:41:31;;;;;;;31.30;29.87;;;16.30;99.90;;;;;;4424415;32;20179;-59
2023/07/21 00:43:58;;;;;;;26.40;25.30;;;16.30;99.90;;;;;;4425152;32;20140;-58
2023/07/21 00:46:27;;;;;;;27.13;25.83;;;16.30;99.90;;;;;;4433851;32;20188;-56
2023/07/21 00:48:54;;;;;;;28.67;27.47;;;16.20;99.90;;;;;;4435452;32;20722;-58
2023/07/21 00:51:24;;;;;;;26.37;25.17;;;16.20;99.90;;;;;;4426001;32;20204;-56
2023/07/21 00:53:57;;;;;;;25.50;24.40;;;16.10;99.90;;;;;;4435618;32;20150;-57
2023/07/21 00:56:30;;;;;;;27.70;26.40;;;16.00;99.90;;;;;;4429545;32;20541;-56
2023/07/21 00:59:00;;;;;;;25.10;24.07;;;15.90;99.90;;;;;;4434571;32;20151;-56
2023/07/21 01:01:27;;;;;;;27.83;26.63;;;15.90;99.90;;;;;;4430124;32;20143;-55
2023/07/21 01:03:58;;;;;;;26.00;24.93;;;15.80;99.90;;;;;;4434515;32;20166;-56
2023/07/21 01:06:27;;;;;;;27.30;26.10;;;15.80;99.90;;;;;;4425893;32;20181;-52
2023/07/21 01:09:00;;;;;;;25.53;24.50;;;15.90;99.90;;;;;;4420840;32;20474;-57
2023/07/21 01:11:29;;;;;;;25.53;24.43;;;16.00;99.90;;;;;;4425610;32;20513;-57
2023/07/21 01:14:03;;;;;;;27.43;26.20;;;16.00;99.90;;;;;;4430736;32;20155;-57
2023/07/21 01:16:34;;;;;;;26.10;25.03;;;16.10;99.90;;;;;;4425214;32;20142;-54
2023/07/21 01:19:02;;;;;;;29.33;27.83;;;16.00;99.90;;;;;;4433621;32;20147;-56
2023/07/21 01:21:38;;;;;;;26.43;25.33;;;15.90;99.90;;;;;;4423478;32;20564;-55
2023/07/21 01:24:14;;;;;;;27.13;25.93;;;15.80;99.90;;;;;;4423079;32;20146;-56
2023/07/21 01:26:48;;;;;;;23.97;22.97;;;15.70;99.90;;;;;;4423279;32;20530;-54
2023/07/21 01:29:26;;;;;;;25.70;24.50;;;15.60;99.90;;;;;;4433881;32;20277;-57
2023/07/21 01:31:55;;;;;;;24.53;23.43;;;15.50;99.90;;;;;;4440528;32;20171;-58
2023/07/21 01:34:25;;;;;;;24.67;23.60;;;15.40;99.90;;;;;;4433562;32;20479;-56
2023/07/21 01:36:55;;;;;;;24.47;23.37;;;15.40;99.90;;;;;;4435687;32;20556;-55
2023/07/21 01:39:27;;;;;;;26.37;25.27;;;15.30;99.90;;;;;;4436980;32;20528;-56
2023/07/21 01:41:57;;;;;;;22.83;21.83;;;15.20;99.90;;;;;;4436983;32;20496;-58
2023/07/21 01:44:24;;;;;;;24.80;23.80;;;15.20;99.90;;;;;;4434792;32;20162;-58
2023/07/21 01:46:57;;;;;;;24.37;23.30;;;15.10;99.90;;;;;;4436988;32;20609;-55
2023/07/21 01:49:24;;;;;;;24.10;23.10;;;15.10;99.90;;;;;;4431695;32;20175;-56
2023/07/21 01:51:57;;;;;;;25.43;24.33;;;15.00;99.90;;;;;;4430826;32;20148;-56
2023/07/21 01:54:42;;;;;;;22.97;21.97;;;15.00;99.90;;;;;;4434886;32;20236;-57
2023/07/21 01:57:13;;;;;;;25.47;24.37;;;15.00;99.90;;;;;;4438695;32;20243;-59
2023/07/21 01:59:49;;;;;;;23.33;22.23;;;14.90;99.90;;;;;;4431613;32;20203;-58
2023/07/21 02:02:22;;;;;;;22.37;21.37;;;14.80;99.90;;;;;;4434174;32;20143;-58
2023/07/21 02:04:54;;;;;;;22.60;21.67;;;14.80;99.90;;;;;;4431272;32;20177;-57
2023/07/21 02:07:26;;;;;;;22.53;21.63;;;14.70;99.90;;;;;;4431509;32;20215;-57
2023/07/21 02:09:54;;;;;;;23.40;22.40;;;14.60;99.90;;;;;;4436156;32;20614;-59
2023/07/21 02:12:26;;;;;;;21.03;20.13;;;14.60;99.90;;;;;;4434885;32;20156;-52
2023/07/21 02:14:53;;;;;;;20.87;19.97;;;14.50;99.90;;;;;;4428885;32;20201;-57
2023/07/21 02:17:24;;;;;;;22.47;21.47;;;14.50;99.90;;;;;;4437025;32;20504;-55
2023/07/21 02:19:54;;;;;;;23.13;22.13;;;14.40;99.90;;;;;;4433927;32;20135;-57
2023/07/21 02:22:24;;;;;;;24.60;23.50;;;14.40;99.90;;;;;;4435808;32;20143;-57
2023/07/21 02:24:51;;;;;;;21.83;20.83;;;14.40;99.90;;;;;;4429840;32;20182;-56
2023/07/21 02:27:20;;;;;;;22.03;21.07;;;14.30;99.90;;;;;;4437390;32;20161;-57
2023/07/21 02:29:50;;;;;;;21.13;20.13;;;14.30;99.90;;;;;;4434668;32;20192;-55
2023/07/21 02:32:21;;;;;;;24.63;23.53;;;14.30;99.90;;;;;;4434144;32;20164;-59
2023/07/21 02:34:51;;;;;;;24.33;23.10;;;14.20;99.90;;;;;;4435965;32;20206;-57
2023/07/21 02:37:19;;;;;;;22.27;20.97;;;14.20;99.90;;;;;;4430770;32;20725;-56
2023/07/21 02:39:49;;;;;;;25.07;23.97;;;14.20;99.90;;;;;;4433482;32;20502;-56
2023/07/21 02:42:16;;;;;;;23.47;22.27;;;14.20;99.90;;;;;;4429183;32;20189;-58
2023/07/21 02:44:46;;;;;;;24.03;22.93;;;14.10;99.90;;;;;;4424437;32;20156;-58
2023/07/21 02:47:20;;;;;;;25.93;24.70;;;14.00;99.90;;;;;;4423610;32;20147;-54
2023/07/21 02:49:47;;;;;;;27.37;26.17;;;14.00;99.90;;;;;;4424778;32;20159;-53
2023/07/21 02:52:16;;;;;;;23.53;22.47;;;14.10;99.90;;;;;;4423682;32;20471;-60
2023/07/21 02:54:43;;;;;;;24.50;23.40;;;14.10;99.90;;;;;;4421997;32;20228;-58
2023/07/21 02:57:10;;;;;;;24.53;23.23;;;14.10;99.90;;;;;;4434478;32;20151;-57
2023/07/21 02:59:37;;;;;;;23.90;22.80;;;14.00;99.90;;;;;;4436568;32;20196;-54
2023/07/21 03:02:08;;;;;;;25.60;24.50;;;14.00;99.90;;;;;;4427166;32;20244;-57
2023/07/21 03:04:42;;;;;;;24.07;23.07;;;14.00;99.90;;;;;;4431420;32;20175;-58
2023/07/21 03:07:09;;;;;;;26.13;24.90;;;14.00;99.90;;;;;;4430180;32;20150;-56
2023/07/21 03:09:38;;;;;;;24.57;23.43;;;14.00;99.90;;;;;;4436653;32;20512;-55
2023/07/21 03:12:06;;;;;;;24.20;23.10;;;13.90;99.90;;;;;;4437143;32;20179;-53
2023/07/21 03:14:32;;;;;;;25.53;24.40;;;13.90;99.90;;;;;;4434329;32;20151;-54
2023/07/21 03:17:03;;;;;;;23.63;22.63;;;13.90;99.90;;;;;;4433254;32;20198;-57
2023/07/21 03:19:30;;;;;;;26.20;25.00;;;13.90;99.90;;;;;;4438368;32;20211;-58
2023/07/21 03:21:59;;;;;;;23.63;22.57;;;14.00;99.90;;;;;;4436488;32;20162;-56
2023/07/21 03:24:26;;;;;;;22.77;21.70;;;14.00;99.90;;;;;;4436479;32;20569;-56
2023/07/21 03:26:59;;;;;;;24.33;23.23;;;14.00;99.90;;;;;;4436413;32;20170;-52
2023/07/21 03:29:26;;;;;;;23.17;22.17;;;14.00;99.90;;;;;;4430230;32;20516;-57
2023/07/21 03:31:55;;;;;;;24.80;23.40;;;14.10;99.90;;;;;;4436388;32;20400;-57
2023/07/21 03:34:23;;;;;;;22.30;21.20;;;14.10;99.90;;;;;;4432727;32;20203;-57
2023/07/21 03:36:51;;;;;;;23.03;21.93;;;14.10;99.90;;;;;;4436309;32;20494;-56
2023/07/21 03:39:23;;;;;;;22.73;21.67;;;14.20;99.90;;;;;;4433774;32;20161;-56
2023/07/21 03:41:52;;;;;;;23.33;22.23;;;14.20;99.90;;;;;;4436732;32;20174;-57
2023/07/21 03:44:22;;;;;;;25.73;24.43;;;14.30;99.90;;;;;;4431127;32;20147;-56
2023/07/21 03:46:49;;;;;;;27.23;25.93;;;14.30;99.90;;;;;;4429075;32;20159;-56
2023/07/21 03:49:16;;;;;;;27.20;25.97;;;14.30;99.90;;;;;;4425888;32;20224;-55
2023/07/21 03:51:43;;;;;;;24.33;23.13;;;14.30;99.90;;;;;;4435690;32;20489;-56
2023/07/21 03:54:10;;;;;;;25.73;24.50;;;14.30;99.90;;;;;;4432029;32;20170;-56
2023/07/21 03:56:43;;;;;;;22.83;21.73;;;14.30;99.90;;;;;;4435612;32;20186;-53
2023/07/21 03:59:10;;;;;;;23.73;22.53;;;14.30;99.90;;;;;;4430576;32;20135;-56
2023/07/21 04:01:37;;;;;;;24.07;22.97;;;14.30;99.90;;;;;;4429547;32;20159;-57
2023/07/21 04:04:04;;;;;;;22.43;21.33;;;14.30;99.90;;;;;;4424099;32;20244;-57
2023/07/21 04:06:34;;;;;;;23.00;21.80;;;14.30;99.90;;;;;;4426713;32;20127;-57
2023/07/21 04:09:04;;;;;;;22.43;21.20;;;14.20;99.90;;;;;;4433401;32;20181;-59
2023/07/21 04:11:31;;;;;;;22.80;21.57;;;14.30;99.90;;;;;;4436546;32;20200;-57
2023/07/21 04:14:00;;;;;;;24.37;23.17;;;14.20;99.90;;;;;;4424121;32;20240;-57
2023/07/21 04:16:28;;;;;;;22.33;21.23;;;14.20;99.90;;;;;;4434812;32;20605;-57
2023/07/21 04:18:55;;;;;;;24.20;22.83;;;14.10;99.90;;;;;;4429804;32;20239;-56
2023/07/21 04:21:22;;;;;;;22.37;21.27;;;14.10;99.90;;;;;;4436186;32;20135;-56
2023/07/21 04:23:49;;;;;;;24.30;23.20;;;14.20;99.90;;;;;;4429220;32;20246;-57
2023/07/21 04:26:17;;;;;;;23.60;22.40;;;14.20;99.90;;;;;;4429794;32;20139;-59
2023/07/21 04:28:45;;;;;;;23.30;22.10;;;14.20;99.90;;;;;;4434995;32;20194;-56
2023/07/21 04:31:13;;;;;;;24.03;22.70;;;14.30;99.90;;;;;;4426086;32;20148;-56
2023/07/21 04:33:41;;;;;;;22.13;20.83;;;14.40;99.90;;;;;;4426053;32;20192;-56
2023/07/21 04:36:11;;;;;;;22.63;21.47;;;14.40;99.90;;;;;;4436579;32;20138;-58
2023/07/21 04:38:41;;;;;;;22.37;21.27;;;14.50;99.90;;;;;;4435120;32;20228;-57
2023/07/21 04:41:18;;;;;;;24.60;23.27;;;14.60;99.90;;;;;;4431373;32;20139;-58
2023/07/21 04:43:49;;;;;;;23.43;22.30;;;14.80;99.90;;;;;;4431754;32;20197;-57
2023/07/21 04:46:20;;;;;;;21.97;20.97;;;15.20;99.90;;;;;;4431303;32;20200;-57
2023/07/21 04:48:47;;;;;;;21.30;20.13;;;16.90;99.90;;;;;;4421202;32;20548;-57
2023/07/21 04:51:14;;;;;;;18.77;17.77;;;19.10;99.90;;;;;;4436657;32;20144;-57
2023/07/21 04:53:43;;;;;;;22.20;20.97;;;20.40;99.90;;;;;;4423700;32;20140;-53
2023/07/21 04:56:13;;;;;;;25.73;24.63;;;22.40;99.90;;;;;;4432656;32;20131;-56
2023/07/21 04:58:40;;;;;;;32.37;30.87;;;24.00;99.90;;;;;;4438436;32;20162;-57
2023/07/21 05:01:07;;;;;;;37.20;35.40;;;26.80;98.90;;;;;;4432321;32;20139;-53
2023/07/21 05:03:35;;;;;;;64.23;61.60;;;29.90;93.20;;;;;;4425168;32;20166;-56
2023/07/21 05:06:02;;;;;;;145.93;140.13;;;31.70;88.20;;;;;;4431087;32;20147;-56
2023/07/21 05:08:33;;;;;;;218.90;210.30;;;31.40;82.90;;;;;;4439013;32;20169;-57
2023/07/21 05:11:00;;;;;;;239.27;230.00;;;29.70;84.20;;;;;;4437699;32;20151;-58
2023/07/21 05:13:27;;;;;;;252.52;242.75;;;28.40;86.90;;;;;;4431975;32;20135;-57
2023/07/21 05:15:54;;;;;;;269.02;258.60;;;27.20;90.00;;;;;;4426372;32;20204;-57
2023/07/21 05:18:21;;;;;;;276.52;265.70;;;26.30;91.60;;;;;;4425160;32;20216;-57
2023/07/21 05:20:50;;;;;;;282.10;271.00;;;25.20;92.60;;;;;;4436969;32;20217;-58
2023/07/21 05:23:17;;;;;;;275.60;264.83;;;23.90;94.80;;;;;;4439760;32;20136;-56
2023/07/21 05:25:44;;;;;;;257.93;247.90;;;22.80;97.10;;;;;;4438606;32;20190;-54
2023/07/21 05:28:12;;;;;;;256.90;246.97;;;22.10;98.60;;;;;;4424507;32;20128;-56
2023/07/21 05:30:42;;;;;;;249.13;239.53;;;21.50;99.90;;;;;;4436435;32;20215;-56
2023/07/21 05:33:09;;;;;;;235.43;224.70;;;20.90;99.90;;;;;;4425578;32;20547;-56
2023/07/21 05:35:36;;;;;;;217.93;209.30;;;20.60;99.90;;;;;;4435956;32;20185;-56
2023/07/21 05:38:05;;;;;;;199.40;191.57;;;20.30;99.90;;;;;;4438359;32;20152;-57
2023/07/21 05:40:32;;;;;;;194.77;187.17;;;20.00;99.90;;;;;;4431144;32;20220;-57
2023/07/21 05:43:00;;;;;;;183.43;176.20;;;19.80;99.90;;;;;;4436846;32;20147;-55
2023/07/21 05:45:26;;;;;;;181.67;174.37;;;19.60;99.90;;;;;;4433724;32;20575;-56
2023/07/21 05:47:55;;;;;;;152.70;146.47;;;19.50;99.90;;;;;;4431547;32;20461;-56
2023/07/21 05:50:22;;;;;;;133.87;128.53;;;19.50;99.90;;;;;;4437260;32;20201;-56
2023/07/21 05:52:51;;;;;;;115.53;110.83;;;19.60;99.90;;;;;;4436662;32;20239;-57
2023/07/21 05:55:21;;;;;;;111.40;106.97;;;19.80;99.90;;;;;;4434650;32;20241;-58
2023/07/21 05:57:48;;;;;;;102.20;98.13;;;19.90;99.90;;;;;;4436762;32;20144;-57
2023/07/21 06:00:15;;;;;;;103.80;99.40;;;20.00;99.90;;;;;;4436338;32;20136;-60
2023/07/21 06:02:44;;;;;;;104.57;100.40;;;20.00;99.90;;;;;;4430998;32;20144;-58
2023/07/21 06:05:11;;;;;;;113.57;109.07;;;20.10;99.90;;;;;;4426741;32;20252;-58
2023/07/21 06:07:42;;;;;;;110.47;105.87;;;20.30;99.90;;;;;;4432578;32;20230;-55
2023/07/21 06:10:15;;;;;;;105.57;101.37;;;20.60;99.90;;;;;;4432059;32;20227;-57
2023/07/21 06:12:43;;;;;;;112.43;107.93;;;20.80;99.90;;;;;;4435684;32;20237;-59
2023/07/21 06:15:10;;;;;;;114.63;109.87;;;21.10;99.90;;;;;;4437600;32;20218;-59
2023/07/21 06:17:38;;;;;;;160.93;154.53;;;21.20;99.90;;;;;;4432336;32;20147;-57
2023/07/21 06:20:07;;;;;;;171.03;164.37;;;21.30;99.90;;;;;;4428495;32;20183;-55
2023/07/21 06:22:34;;;;;;;161.10;154.83;;;21.40;99.90;;;;;;4432047;32;20270;-58
2023/07/21 06:25:03;;;;;;;149.40;143.50;;;21.70;99.90;;;;;;4437197;32;20161;-54
2023/07/21 06:27:30;;;;;;;167.07;160.67;;;22.10;99.90;;;;;;4433563;32;20701;-58
2023/07/21 06:29:58;;;;;;;164.37;157.97;;;22.40;99.90;;;;;;4432982;32;20147;-58
2023/07/21 06:32:25;;;;;;;171.27;164.57;;;22.70;99.90;;;;;;4435592;32;20487;-57
2023/07/21 06:34:52;;;;;;;186.37;179.03;;;22.90;99.90;;;;;;4429383;32;20183;-56
2023/07/21 06:37:21;;;;;;;203.40;195.33;;;23.20;99.30;;;;;;4429786;32;20139;-56
2023/07/21 06:39:50;;;;;;;222.47;213.93;;;23.40;98.70;;;;;;4435546;32;20210;-57
2023/07/21 06:42:20;;;;;;;218.73;210.17;;;23.40;98.10;;;;;;4436425;32;20151;-57
2023/07/21 06:44:47;;;;;;;227.43;218.73;;;23.50;98.30;;;;;;4427483;32;20143;-56
2023/07/21 06:47:16;;;;;;;225.87;217.30;;;23.60;97.80;;;;;;4433279;32;20213;-54
2023/07/21 06:49:43;;;;;;;246.00;236.43;;;23.50;97.80;;;;;;4442528;32;20181;-58
2023/07/21 06:52:10;;;;;;;244.37;235.03;;;23.40;97.90;;;;;;4423701;32;20260;-57
2023/07/21 06:54:38;;;;;;;235.73;226.60;;;23.20;98.30;;;;;;4422986;32;20139;-57
2023/07/21 06:57:10;;;;;;;228.17;219.27;;;23.00;98.60;;;;;;4428162;32;20183;-56
2023/07/21 06:59:36;;;;;;;242.50;233.30;;;22.80;98.80;;;;;;4431142;32;20139;-56
2023/07/21 07:02:04;;;;;;;232.50;223.50;;;22.50;99.40;;;;;;4432546;32;20165;-57
2023/07/21 07:04:33;;;;;;;235.77;226.67;;;22.30;99.70;;;;;;4435990;32;20230;-57
2023/07/21 07:07:00;;;;;;;233.40;224.50;;;21.90;99.90;;;;;;4434593;32;20143;-58
2023/07/21 07:09:26;;;;;;;228.20;219.33;;;21.50;99.90;;;;;;4424511;32;20140;-56
2023/07/21 07:11:53;;;;;;;216.77;208.43;;;21.20;99.90;;;;;;4426357;32;20140;-58
2023/07/21 07:14:20;;;;;;;223.87;215.37;;;21.10;99.90;;;;;;4423422;32;20217;-56
2023/07/21 07:16:47;;;;;;;227.60;218.70;;;21.20;99.90;;;;;;4430896;32;20179;-58
2023/07/21 07:19:14;;;;;;;203.53;195.63;;;21.10;99.90;;;;;;4430410;32;20493;-57
2023/07/21 07:21:42;;;;;;;205.63;197.70;;;21.00;99.90;;;;;;4423341;32;20156;-58
2023/07/21 07:24:11;;;;;;;208.47;200.33;;;20.80;99.90;;;;;;4427696;32;20559;-57
2023/07/21 07:26:37;;;;;;;210.57;202.27;;;20.90;99.90;;;;;;4429574;32;20140;-58
2023/07/21 07:29:04;;;;;;;206.80;198.37;;;21.00;99.90;;;;;;4433550;32;20155;-58
2023/07/21 07:31:31;;;;;;;195.33;187.67;;;20.90;99.90;;;;;;4428836;32;20584;-57
2023/07/21 07:33:58;;;;;;;193.37;185.83;;;20.90;99.90;;;;;;4431603;32;20487;-58
2023/07/21 07:36:25;;;;;;;182.27;175.07;;;20.90;99.90;;;;;;4424986;32;20493;-57
2023/07/21 07:38:54;;;;;;;182.90;175.67;;;21.00;99.90;;;;;;4427221;32;20136;-59
2023/07/21 07:41:20;;;;;;;181.70;174.50;;;21.30;99.90;;;;;;4428981;32;20166;-56
2023/07/21 07:44:04;;;;;;;178.97;171.93;;;21.70;99.90;;;;;;4429485;32;20166;-58
2023/07/21 07:46:33;;;;;;;191.10;183.63;;;22.10;99.90;;;;;;4428893;32;20186;-59
2023/07/21 07:48:59;;;;;;;189.67;182.23;;;22.50;99.90;;;;;;4427788;32;20147;-56
2023/07/21 07:51:27;;;;;;;209.17;200.93;;;23.00;99.90;;;;;;4427692;32;20206;-55
2023/07/21 07:53:55;;;;;;;206.27;198.25;;;23.00;99.50;;;;;;4427761;32;20155;-57
2023/07/21 07:56:22;;;;;;;209.87;201.73;;;23.30;99.50;;;;;;4433456;32;20148;-58
2023/07/21 07:58:49;;;;;;;233.37;224.23;;;23.60;98.90;;;;;;4429251;32;20578;-56
2023/07/21 08:01:16;;;;;;;239.70;230.47;;;23.70;96.40;;;;;;4429429;32;20151;-57
2023/07/21 08:03:44;;;;;;;251.27;241.63;;;23.90;96.40;;;;;;4426240;32;20218;-57
2023/07/21 08:06:12;;;;;;;250.33;240.70;;;24.80;96.90;;;;;;4425804;32;20226;-57
2023/07/21 08:08:38;;;;;;;242.32;232.90;;;26.20;94.50;;;;;;4429923;32;20152;-58
2023/07/21 08:11:10;;;;;;;257.40;247.37;;;27.50;91.60;;;;;;4437815;32;20177;-57
2023/07/21 08:13:38;;;;;;;268.80;258.45;;;28.60;90.00;;;;;;4426873;32;20514;-58
2023/07/21 08:16:10;;;;;;;290.90;279.67;;;30.70;83.80;;;;;;4423903;32;20257;-59
2023/07/21 08:18:36;;;;;;;291.70;280.50;;;30.70;81.00;;;;;;4435672;32;20171;-58
2023/07/21 08:21:17;;;;;;;296.77;285.25;;;30.20;80.00;;;;;;4432383;32;20587;-58
2023/07/21 08:23:44;;;;;;;329.05;316.33;;;28.90;79.60;;;;;;4424018;32;20228;-57
2023/07/21 08:26:12;;;;;;;362.00;347.88;;;28.30;81.60;;;;;;4430502;32;20181;-57
2023/07/21 08:28:40;;;;;;;366.02;351.65;;;27.30;83.80;;;;;;4429675;32;20613;-57
2023/07/21 08:31:08;;;;;;;371.13;356.35;;;27.10;86.10;;;;;;4425750;32;20509;-57
2023/07/21 08:33:36;;;;;;;375.23;360.42;;;27.00;86.90;;;;;;4428100;32;20222;-58
2023/07/21 08:36:02;;;;;;;359.05;344.77;;;28.00;86.00;;;;;;4429201;32;20170;-57
2023/07/21 08:38:29;;;;;;;346.92;333.45;;;29.30;84.20;;;;;;4432498;32;20592;-56
